Time;durP1;ratioP1;P1;durP2;ratioP2;P2;SDS_P1;SDS_P2;PMS_P1;PMS_P2;Temp;Humidity;BMP_temperature;BMP_pressure;BME280_temperature;BME280_humidity;BME280_pressure;Samples;Min_cycle;Max_cycle;Signal;HPM_P1;HPM_P2
2023/03/27 00:00:55;;;;;;;5.43;1.45;;;;;;;;;;5053164;28;20488;-63
2023/03/27 00:03:22;;;;;;;9.52;1.60;;;;;;;;;;5053129;28;20084;-63
2023/03/27 00:05:47;;;;;;;6.07;1.40;;;4.40;99.90;;;;;;5035408;28;20063;-63
2023/03/27 00:08:14;;;;;;;13.32;1.58;;;;;;;;;;5053020;28;20049;-63
2023/03/27 00:10:43;;;;;;;10.40;1.60;;;;;;;;;;5052945;28;20135;-63
2023/03/27 00:13:09;;;;;;;10.38;2.05;;;;;;;;;;5052602;28;20098;-65
2023/03/27 00:15:36;;;;;;;11.23;1.80;;;;;;;;;;5053000;28;20056;-64
2023/03/27 00:18:02;;;;;;;7.97;2.20;;;;;;;;;;5052896;28;20123;-63
2023/03/27 00:20:30;;;;;;;12.90;2.10;;;4.60;99.90;;;;;;5052822;28;20132;-63
2023/03/27 00:22:56;;;;;;;9.05;2.10;;;4.30;99.90;;;;;;5051800;28;20135;-63
2023/03/27 00:25:23;;;;;;;11.15;1.55;;;4.50;99.90;;;;;;5052944;28;20128;-63
2023/03/27 00:27:50;;;;;;;14.13;2.25;;;;;;;;;;5052516;28;20052;-63
2023/03/27 00:30:16;;;;;;;6.75;1.30;;;4.30;99.90;;;;;;5052625;28;20102;-63
2023/03/27 00:32:42;;;;;;;6.82;1.60;;;;;;;;;;5052433;28;20048;-63
2023/03/27 00:35:09;;;;;;;6.72;1.45;;;;;;;;;;5052495;28;20045;-62
2023/03/27 00:37:36;;;;;;;6.32;1.73;;;;;;;;;;5052340;28;20108;-63
2023/03/27 00:40:06;;;;;;;9.45;1.70;;;;;;;;;;5052491;28;20091;-63
2023/03/27 00:42:33;;;;;;;9.05;1.60;;;3.90;99.90;;;;;;5050746;28;20481;-63
2023/03/27 00:44:59;;;;;;;12.05;2.05;;;;;;;;;;5052261;28;20045;-62
2023/03/27 00:47:29;;;;;;;10.07;1.80;;;;;;;;;;5052260;28;20421;-64
2023/03/27 00:49:57;;;;;;;5.32;1.30;;;4.40;99.90;;;;;;5052277;28;20099;-63
2023/03/27 00:52:28;;;;;;;8.50;1.85;;;;;;;;;;5050764;28;20178;-63
2023/03/27 00:54:55;;;;;;;9.63;1.77;;;;;;;;;;5052141;28;20473;-62
2023/03/27 00:57:22;;;;;;;12.30;1.65;;;;;;;;;;5051882;28;20086;-63
2023/03/27 00:59:48;;;;;;;;;;;4.20;99.90;;;;;;5051515;28;20079;-63
2023/03/27 01:02:15;;;;;;;11.77;1.60;;;;;;;;;;5052156;28;19921;-63
2023/03/27 01:04:43;;;;;;;8.70;1.88;;;4.50;99.90;;;;;;5050964;28;20056;-62
2023/03/27 01:07:10;;;;;;;9.25;1.70;;;4.30;99.90;;;;;;5051940;28;20041;-63
2023/03/27 01:09:37;;;;;;;9.50;1.75;;;;;;;;;;5051501;28;20178;-63
2023/03/27 01:12:09;;;;;;;8.70;1.80;;;;;;;;;;5051518;28;20183;-62
2023/03/27 01:14:47;;;;;;;7.97;1.42;;;;;;;;;;5051811;28;20060;-62
2023/03/27 01:17:16;;;;;;;8.57;1.70;;;4.30;99.90;;;;;;5051851;28;20604;-62
2023/03/27 01:19:48;;;;;;;10.50;1.90;;;;;;;;;;5051737;28;20481;-63
2023/03/27 01:22:33;;;;;;;9.02;1.90;;;4.60;99.90;;;;;;5051757;28;20052;-63
2023/03/27 01:25:17;;;;;;;14.32;1.45;;;;;;;;;;5051448;28;20508;-62
2023/03/27 01:28:16;;;;;;;16.13;2.78;;;4.40;99.90;;;;;;5051675;28;20091;-63
2023/03/27 01:30:49;;;;;;;10.68;1.50;;;;;;;;;;5051372;28;20512;-63
2023/03/27 01:33:46;;;;;;;10.40;1.80;;;4.30;99.90;;;;;;5051570;28;20044;-63
2023/03/27 01:36:34;;;;;;;13.10;2.10;;;;;;;;;;5051598;28;20110;-62
2023/03/27 01:39:30;;;;;;;12.02;2.15;;;4.60;99.90;;;;;;5051640;28;20170;-63
2023/03/27 01:42:03;;;;;;;13.10;2.95;;;4.40;99.90;;;;;;5051320;28;20052;-62
2023/03/27 01:44:53;;;;;;;8.57;1.77;;;5.00;99.90;;;;;;5051612;28;20056;-63
2023/03/27 01:47:33;;;;;;;11.25;1.85;;;;;;;;;;5051622;28;20049;-62
2023/03/27 01:50:18;;;;;;;17.48;3.22;;;4.60;99.90;;;;;;5051520;28;20102;-63
2023/03/27 01:52:51;;;;;;;36.78;3.17;;;4.70;99.90;;;;;;5051489;28;20044;-64
2023/03/27 01:55:22;;;;;;;15.73;2.15;;;4.30;99.90;;;;;;5051257;28;20459;-63
2023/03/27 01:57:59;;;;;;;11.57;2.13;;;4.40;99.90;;;;;;5051441;28;20053;-63
2023/03/27 02:00:26;;;;;;;12.80;2.13;;;;;;;;;;5051500;28;20064;-63
2023/03/27 02:02:57;;;;;;;12.52;2.50;;;;;;;;;;5051348;28;20045;-64
2023/03/27 02:05:35;;;;;;;14.27;2.25;;;4.10;99.90;;;;;;5051386;28;20047;-63
2023/03/27 02:08:09;;;;;;;10.55;1.80;;;;;;;;;;5051538;28;20127;-65
2023/03/27 02:10:39;;;;;;;13.82;2.15;;;3.90;99.90;;;;;;5051197;28;20543;-63
2023/03/27 02:13:12;;;;;;;12.23;2.55;;;4.00;99.90;;;;;;5051339;28;20100;-63
2023/03/27 02:15:40;;;;;;;8.15;2.10;;;;;;;;;;5051311;28;20053;-62
2023/03/27 02:18:11;;;;;;;9.63;1.98;;;4.00;99.90;;;;;;5051418;28;20049;-65
2023/03/27 02:20:38;;;;;;;10.43;1.88;;;4.00;99.90;;;;;;5051634;28;20048;-63
2023/03/27 02:23:05;;;;;;;10.18;2.08;;;3.70;99.90;;;;;;5055105;28;20099;-63
2023/03/27 02:25:33;;;;;;;9.75;2.10;;;3.90;99.90;;;;;;5054715;28;20125;-63
2023/03/27 02:28:22;;;;;;;13.13;2.28;;;;;;;;;;5054967;28;20145;-63
2023/03/27 02:31:15;;;;;;;10.73;2.13;;;;;;;;;;5054974;28;20094;-63
2023/03/27 02:34:10;;;;;;;11.88;2.00;;;4.20;99.90;;;;;;5045974;28;20131;-62
2023/03/27 02:36:53;;;;;;;9.95;2.25;;;4.10;99.90;;;;;;5055172;28;20053;-62
2023/03/27 02:39:43;;;;;;;11.85;2.50;;;4.40;99.90;;;;;;5054516;28;20056;-63
2023/03/27 02:42:16;;;;;;;9.77;2.20;;;;;;;;;;5054708;28;20037;-63
2023/03/27 02:44:52;;;;;;;13.90;1.70;;;4.20;99.90;;;;;;5054656;28;20132;-63
2023/03/27 02:47:51;;;;;;;13.63;2.20;;;4.40;99.90;;;;;;5053463;28;20122;-63
2023/03/27 02:50:45;;;;;;;7.38;1.95;;;4.60;99.90;;;;;;5054569;28;20057;-63
2023/03/27 02:53:13;;;;;;;8.32;2.00;;;;;;;;;;5054204;28;20045;-62
2023/03/27 02:55:43;;;;;;;8.65;2.50;;;;;;;;;;5054417;28;20084;-63
2023/03/27 02:58:12;;;;;;;9.77;1.98;;;;;;;;;;5054386;28;20481;-63
2023/03/27 03:00:42;;;;;;;6.53;1.67;;;;;;;;;;5054205;28;20045;-62
2023/03/27 03:03:34;;;;;;;7.05;1.63;;;4.50;99.90;;;;;;5054218;28;20045;-63
2023/03/27 03:06:05;;;;;;;10.88;2.50;;;4.30;99.90;;;;;;5043568;28;20053;-63
2023/03/27 03:08:36;;;;;;;8.38;2.10;;;;;;;;;;5053887;28;20052;-63
2023/03/27 03:11:04;;;;;;;13.88;2.45;;;4.30;99.90;;;;;;5054190;28;20052;-63
2023/03/27 03:13:30;;;;;;;14.40;2.15;;;4.40;99.90;;;;;;5053977;28;20040;-63
2023/03/27 03:15:57;;;;;;;10.43;2.17;;;4.40;99.90;;;;;;5054086;28;20051;-63
2023/03/27 03:18:23;;;;;;;12.48;2.00;;;;;;;;;;5054017;28;20481;-63
2023/03/27 03:20:53;;;;;;;10.88;2.83;;;;;;;;;;5052890;28;20136;-65
2023/03/27 03:23:21;;;;;;;12.38;2.60;;;4.20;99.90;;;;;;5053553;28;20037;-64
2023/03/27 03:25:51;;;;;;;11.43;2.55;;;;;;;;;;5053818;28;20567;-64
2023/03/27 03:28:17;;;;;;;8.48;2.50;;;4.60;99.90;;;;;;5054019;28;20053;-63
2023/03/27 03:30:46;;;;;;;9.93;2.53;;;4.80;99.90;;;;;;5053759;28;20128;-63
2023/03/27 03:33:16;;;;;;;15.85;3.13;;;;;;;;;;5053312;28;20095;-64
2023/03/27 03:35:45;;;;;;;12.70;2.50;;;;;;;;;;5054019;28;20409;-64
2023/03/27 03:38:11;;;;;;;10.82;2.53;;;4.50;99.90;;;;;;5053415;28;20159;-63
2023/03/27 03:40:37;;;;;;;10.93;2.80;;;;;;;;;;5053604;28;20139;-64
2023/03/27 03:43:03;;;;;;;14.38;2.50;;;4.20;99.90;;;;;;5053527;28;20423;-63
2023/03/27 03:45:29;;;;;;;11.82;2.35;;;;;;;;;;5052143;28;20096;-62
2023/03/27 03:47:55;;;;;;;11.13;2.60;;;;;;;;;;5053442;28;20060;-63
2023/03/27 03:50:21;;;;;;;13.82;2.60;;;;;;;;;;5052758;28;20503;-64
2023/03/27 03:52:47;;;;;;;9.07;2.00;;;;;;;;;;5052882;28;20534;-65
2023/03/27 03:55:14;;;;;;;11.25;1.70;;;;;;;;;;5053205;28;20060;-63
2023/03/27 03:57:45;;;;;;;9.32;1.40;;;4.30;99.90;;;;;;5053187;28;20429;-63
2023/03/27 04:00:12;;;;;;;7.50;1.55;;;;;;;;;;5053297;28;20045;-62
2023/03/27 04:02:40;;;;;;;;;;;;;;;;;;5053610;28;20061;-63
2023/03/27 04:05:06;;;;;;;11.38;1.40;;;;;;;;;;5068445;28;19928;-63
2023/03/27 04:07:34;;;;;;;;;;;;;;;;;;5053397;28;20098;-65
2023/03/27 04:10:01;;;;;;;9.65;1.33;;;4.40;99.90;;;;;;5053048;28;19976;-62
2023/03/27 04:12:27;;;;;;;7.68;1.45;;;;;;;;;;5052829;28;20049;-63
2023/03/27 04:14:54;;;;;;;8.70;1.50;;;;;;;;;;5052883;28;20049;-63
2023/03/27 04:17:19;;;;;;;;;;;4.20;99.90;;;;;;5053294;28;20546;-62
2023/03/27 04:19:46;;;;;;;8.77;1.85;;;;;;;;;;5052793;28;19925;-63
2023/03/27 04:22:16;;;;;;;9.50;1.63;;;4.50;99.90;;;;;;5053107;28;20150;-64
2023/03/27 04:24:43;;;;;;;14.82;2.28;;;;;;;;;;5052799;28;20080;-63
2023/03/27 04:27:10;;;;;;;9.38;1.55;;;4.10;99.90;;;;;;5052367;28;20405;-64
2023/03/27 04:29:36;;;;;;;7.40;1.55;;;;;;;;;;5052553;28;20041;-63
2023/03/27 04:32:04;;;;;;;4.75;1.00;;;;;;;;;;5052504;28;20107;-63
2023/03/27 04:34:30;;;;;;;3.45;1.10;;;;;;;;;;5052239;28;20049;-63
2023/03/27 04:36:56;;;;;;;5.57;1.30;;;;;;;;;;5052485;28;20061;-63
2023/03/27 04:39:22;;;;;;;2.00;0.90;;;;;;;;;;5051955;28;20079;-64
2023/03/27 04:41:49;;;;;;;3.25;0.80;;;;;;;;;;5052424;28;20056;-63
2023/03/27 04:44:18;;;;;;;3.30;1.05;;;;;;;;;;5050770;28;20143;-63
2023/03/27 04:46:48;;;;;;;8.85;1.17;;;;;;;;;;5052369;28;20068;-66
2023/03/27 04:49:17;;;;;;;3.42;0.88;;;;;;;;;;5052041;28;20045;-63
2023/03/27 04:51:44;;;;;;;3.25;1.10;;;;;;;;;;5034545;28;20493;-64
2023/03/27 04:54:10;;;;;;;4.78;1.38;;;;;;;;;;5052060;28;20052;-64
2023/03/27 04:56:36;;;;;;;;;;;2.60;99.90;;;;;;5052558;28;20072;-63
2023/03/27 04:59:02;;;;;;;5.90;1.05;;;;;;;;;;5052115;28;20369;-63
2023/03/27 05:01:29;;;;;;;7.47;1.00;;;;;;;;;;5052047;28;20128;-65
2023/03/27 05:03:55;;;;;;;;;;;;;;;;;;5052148;28;20045;-63
2023/03/27 05:06:21;;;;;;;8.90;1.30;;;;;;;;;;5052022;28;19995;-63
2023/03/27 05:08:47;;;;;;;5.13;1.08;;;;;;;;;;5052046;28;20083;-63
2023/03/27 05:11:13;;;;;;;8.27;1.58;;;;;;;;;;5051687;28;20813;-63
2023/03/27 05:13:40;;;;;;;9.00;1.60;;;;;;;;;;5051412;28;20405;-63
2023/03/27 05:16:05;;;;;;;;;;;3.60;99.90;;;;;;5052229;28;20055;-63
2023/03/27 05:18:32;;;;;;;6.50;1.20;;;;;;;;;;5051459;28;19925;-64
2023/03/27 05:20:57;;;;;;;12.25;1.60;;;3.60;99.90;;;;;;5051773;28;20095;-64
2023/03/27 05:23:24;;;;;;;7.70;1.42;;;;;;;;;;5051722;28;20437;-65
2023/03/27 05:25:50;;;;;;;6.93;1.58;;;;;;;;;;5051785;28;20055;-63
2023/03/27 05:28:17;;;;;;;7.75;1.30;;;;;;;;;;5051815;28;20128;-63
2023/03/27 05:30:43;;;;;;;9.73;1.42;;;;;;;;;;5051772;28;20045;-63
2023/03/27 05:33:12;;;;;;;12.55;1.50;;;;;;;;;;5051334;28;20048;-65
2023/03/27 05:35:40;;;;;;;6.63;1.73;;;;;;;;;;5051559;28;20075;-63
2023/03/27 05:38:07;;;;;;;8.43;1.85;;;;;;;;;;5051273;28;20056;-63
2023/03/27 05:40:33;;;;;;;11.32;2.13;;;;;;;;;;5051614;28;20148;-64
2023/03/27 05:43:00;;;;;;;11.77;1.67;;;;;;;;;;5051366;28;20041;-63
2023/03/27 05:45:26;;;;;;;12.98;1.75;;;;;;;;;;5051483;28;20049;-63
2023/03/27 05:47:53;;;;;;;;;;;3.50;99.90;;;;;;5051686;28;20087;-63
2023/03/27 05:50:21;;;;;;;11.15;2.05;;;3.80;99.90;;;;;;5051631;28;19930;-64
2023/03/27 05:52:47;;;;;;;15.50;2.13;;;;;;;;;;5051453;28;20044;-63
2023/03/27 05:55:16;;;;;;;8.15;1.60;;;3.90;99.90;;;;;;5052669;28;20702;-63
2023/03/27 05:57:42;;;;;;;9.18;1.77;;;4.00;99.90;;;;;;5055537;28;20091;-63
2023/03/27 06:00:12;;;;;;;7.80;1.85;;;3.90;99.90;;;;;;5055450;28;20076;-64
2023/03/27 06:02:41;;;;;;;7.68;1.52;;;4.40;99.90;;;;;;5054878;28;20440;-65
2023/03/27 06:05:14;;;;;;;8.32;1.30;;;;;;;;;;5055282;28;20362;-63
2023/03/27 06:07:44;;;;;;;5.20;1.33;;;;;;;;;;5055323;28;20048;-64
2023/03/27 06:10:11;;;;;;;8.35;1.48;;;4.10;99.90;;;;;;5055009;28;20493;-64
2023/03/27 06:12:37;;;;;;;13.52;1.65;;;4.40;99.90;;;;;;5055455;28;20103;-63
2023/03/27 06:15:08;;;;;;;10.60;2.08;;;;;;;;;;5055267;28;20412;-63
2023/03/27 06:17:34;;;;;;;7.78;2.17;;;;;;;;;;5054891;28;20538;-64
2023/03/27 06:20:01;;;;;;;;;;;;;;;;;;5055611;28;20048;-65
2023/03/27 06:22:27;;;;;;;6.18;1.85;;;;;;;;;;5055081;28;19935;-64
2023/03/27 06:24:53;;;;;;;14.55;2.20;;;4.40;99.90;;;;;;5055046;28;20053;-64
2023/03/27 06:27:22;;;;;;;10.45;1.75;;;;;;;;;;5055275;28;20074;-64
2023/03/27 06:29:48;;;;;;;10.13;2.15;;;4.70;99.90;;;;;;5054362;28;20055;-64
2023/03/27 06:32:15;;;;;;;10.50;1.98;;;4.50;99.90;;;;;;5053560;28;20419;-64
2023/03/27 06:34:41;;;;;;;11.05;2.10;;;4.70;99.90;;;;;;5054793;28;20049;-64
2023/03/27 06:37:07;;;;;;;11.43;1.98;;;4.60;99.90;;;;;;5049797;28;20115;-68
2023/03/27 06:39:33;;;;;;;10.73;1.90;;;5.00;99.90;;;;;;5046097;28;20494;-65
2023/03/27 06:41:58;;;;;;;16.10;2.10;;;4.80;99.90;;;;;;5054255;28;20540;-64
2023/03/27 06:44:24;;;;;;;17.77;2.13;;;4.90;99.90;;;;;;5053126;28;20049;-63
2023/03/27 06:46:49;;;;;;;12.85;1.83;;;4.80;99.90;;;;;;5053742;28;20049;-65
2023/03/27 06:49:15;;;;;;;7.90;2.00;;;4.80;99.90;;;;;;5066792;28;20052;-64
2023/03/27 06:51:41;;;;;;;13.07;2.05;;;4.80;99.90;;;;;;5054183;28;20049;-65
2023/03/27 06:54:07;;;;;;;20.25;3.72;;;;;;;;;;5051788;28;20051;-65
2023/03/27 07:03:08;;;;;;;9.20;2.10;;;;;;;;;;5109254;27;20392;-63
2023/03/27 07:05:36;;;;;;;7.13;1.90;;;4.50;99.90;;;;;;5109128;28;20064;-65
2023/03/27 07:08:13;;;;;;;19.60;3.60;;;;;;;;;;5108543;28;20053;-63
2023/03/27 07:10:39;;;;;;;12.15;1.88;;;4.90;99.90;;;;;;5109290;28;20054;-63
2023/03/27 07:13:05;;;;;;;7.40;1.83;;;4.70;99.90;;;;;;5109359;28;20090;-65
2023/03/27 07:15:31;;;;;;;10.88;1.70;;;4.30;99.90;;;;;;5105666;28;20075;-63
2023/03/27 07:18:01;;;;;;;7.95;2.05;;;;;;;;;;5107500;28;20050;-67
2023/03/27 07:20:28;;;;;;;6.03;1.95;;;;;;;;;;5109297;28;20052;-66
2023/03/27 07:22:56;;;;;;;7.20;1.55;;;2.40;99.90;;;;;;5107887;28;20139;-66
2023/03/27 07:25:22;;;;;;;10.70;2.10;;;;;;;;;;5109261;28;20050;-67
2023/03/27 07:27:48;;;;;;;;;;;1.90;99.90;;;;;;5109285;28;20062;-67
2023/03/27 07:30:14;;;;;;;11.43;1.90;;;;;;;;;;5109168;28;19920;-67
2023/03/27 07:32:44;;;;;;;9.27;1.60;;;;;;;;;;5109190;28;20055;-66
2023/03/27 07:35:10;;;;;;;4.90;1.58;;;;;;;;;;5109038;28;20074;-66
2023/03/27 07:37:37;;;;;;;11.57;2.05;;;;;;;;;;5108955;28;20052;-66
2023/03/27 07:40:07;;;;;;;14.80;2.17;;;;;;;;;;5108992;28;20426;-66
2023/03/27 07:42:34;;;;;;;9.10;1.55;;;;;;;;;;5108364;28;20395;-67
2023/03/27 07:45:01;;;;;;;8.10;1.60;;;;;;;;;;5107899;28;20090;-67
2023/03/27 07:47:27;;;;;;;6.82;1.45;;;3.10;99.90;;;;;;5108891;28;20055;-66
2023/03/27 07:49:53;;;;;;;6.90;1.48;;;3.20;99.90;;;;;;5108809;28;20697;-66
2023/03/27 07:52:18;;;;;;;9.20;1.52;;;3.30;99.90;;;;;;5108764;28;20144;-65
2023/03/27 07:54:46;;;;;;;9.02;1.60;;;3.40;99.90;;;;;;5107591;28;20043;-66
2023/03/27 07:57:14;;;;;;;5.55;1.50;;;3.70;99.90;;;;;;5108456;28;20400;-65
2023/03/27 07:59:40;;;;;;;16.23;2.35;;;3.80;99.90;;;;;;5108545;28;20102;-68
2023/03/27 08:02:07;;;;;;;9.57;1.50;;;;;;;;;;5108509;28;20124;-66
2023/03/27 08:04:32;;;;;;;7.38;1.67;;;4.10;99.90;;;;;;5108616;28;20063;-66
2023/03/27 08:06:59;;;;;;;8.43;1.50;;;4.30;99.90;;;;;;5107292;28;20035;-66
2023/03/27 08:09:25;;;;;;;12.23;1.85;;;4.80;99.90;;;;;;5097866;28;20051;-66
2023/03/27 08:11:51;;;;;;;11.52;1.83;;;4.90;99.90;;;;;;5123096;28;20053;-66
2023/03/27 08:14:17;;;;;;;12.75;2.25;;;5.00;99.90;;;;;;5116022;27;20130;-66
2023/03/27 08:16:43;;;;;;;10.07;1.63;;;5.00;99.90;;;;;;5107557;28;20436;-66
2023/03/27 08:19:10;;;;;;;9.85;2.50;;;5.30;99.90;;;;;;5094096;28;20125;-64
2023/03/27 08:21:35;;;;;;;4.88;1.45;;;5.00;99.90;;;;;;5094503;28;20070;-67
2023/03/27 08:24:03;;;;;;;6.32;1.70;;;;;;;;;;5092775;28;20044;-67
2023/03/27 08:26:32;;;;;;;14.88;1.50;;;;;;;;;;5094089;28;20133;-65
2023/03/27 08:28:59;;;;;;;15.32;1.75;;;5.40;99.90;;;;;;5094289;28;20119;-66
2023/03/27 08:31:26;;;;;;;11.13;1.92;;;5.30;99.90;;;;;;5094218;28;20055;-65
2023/03/27 08:33:52;;;;;;;4.07;1.63;;;5.40;99.90;;;;;;5094170;28;20052;-66
2023/03/27 08:36:18;;;;;;;7.07;1.42;;;5.40;99.90;;;;;;5093789;28;20123;-68
2023/03/27 08:38:45;;;;;;;7.00;1.55;;;;;;;;;;5092635;28;20068;-67
2023/03/27 08:41:29;;;;;;;7.40;1.15;;;;;;;;;;5093716;28;20079;-66
2023/03/27 08:43:59;;;;;;;8.57;1.70;;;6.10;99.90;;;;;;5093925;28;20155;-71
2023/03/27 08:46:30;;;;;;;5.75;1.40;;;5.80;99.90;;;;;;5094327;28;20121;-65
2023/03/27 08:49:17;;;;;;;4.53;1.27;;;5.80;99.90;;;;;;5094009;28;20055;-66
2023/03/27 08:51:52;;;;;;;4.53;1.25;;;5.60;99.90;;;;;;5094011;28;20076;-65
2023/03/27 08:54:30;;;;;;;5.13;1.38;;;6.00;99.90;;;;;;5093432;28;20059;-65
2023/03/27 08:56:57;;;;;;;7.70;1.23;;;5.80;99.90;;;;;;5106096;28;20130;-67
2023/03/27 08:59:27;;;;;;;;;;;5.70;99.90;;;;;;5113416;28;20131;-64
2023/03/27 09:02:21;;;;;;;8.20;1.10;;;5.50;99.90;;;;;;5113487;28;19923;-67
2023/03/27 09:05:03;;;;;;;3.88;1.02;;;6.00;99.90;;;;;;5113992;28;20074;-65
2023/03/27 09:07:50;;;;;;;4.32;0.93;;;6.00;99.90;;;;;;5113656;28;20047;-64
2023/03/27 09:10:35;;;;;;;7.00;1.55;;;6.10;99.90;;;;;;5113643;28;20084;-65
2023/03/27 09:13:10;;;;;;;6.68;1.20;;;6.10;99.90;;;;;;5113951;28;20055;-66
2023/03/27 09:15:57;;;;;;;7.80;1.50;;;;;;;;;;5113324;28;20498;-66
2023/03/27 09:18:31;;;;;;;5.10;1.40;;;6.40;99.90;;;;;;5095422;28;20051;-64
2023/03/27 09:21:18;;;;;;;6.70;1.30;;;;;;;;;;5092329;28;20112;-67
2023/03/27 09:23:45;;;;;;;7.65;1.55;;;6.50;99.90;;;;;;5108679;28;20044;-70
2023/03/27 09:26:35;;;;;;;5.32;1.15;;;6.70;99.90;;;;;;5092223;28;20173;-65
2023/03/27 09:29:19;;;;;;;14.43;1.67;;;6.70;99.90;;;;;;5093681;28;20097;-67
2023/03/27 09:31:50;;;;;;;11.90;1.42;;;6.50;99.90;;;;;;5092301;28;20060;-64
2023/03/27 09:34:25;;;;;;;8.88;1.60;;;;;;;;;;5093351;28;20123;-65
2023/03/27 09:36:51;;;;;;;6.35;1.20;;;6.50;99.90;;;;;;5093046;28;20057;-65
2023/03/27 09:39:22;;;;;;;5.90;1.13;;;6.70;99.90;;;;;;5092752;28;20070;-64
2023/03/27 09:41:56;;;;;;;5.18;1.33;;;6.50;99.90;;;;;;5092925;28;20071;-65
2023/03/27 09:44:25;;;;;;;5.32;1.30;;;6.60;99.90;;;;;;5092910;28;20062;-65
2023/03/27 09:47:03;;;;;;;2.60;1.00;;;7.20;99.90;;;;;;5092845;28;20126;-65
2023/03/27 09:49:29;;;;;;;12.63;1.52;;;7.00;99.90;;;;;;5092965;28;20105;-64
2023/03/27 09:51:58;;;;;;;6.95;1.42;;;7.40;99.90;;;;;;5092996;28;20044;-65
2023/03/27 09:54:27;;;;;;;6.68;1.50;;;7.00;99.90;;;;;;5092635;28;20460;-65
2023/03/27 09:57:02;;;;;;;4.82;1.10;;;6.50;99.90;;;;;;5092859;28;20048;-64
2023/03/27 09:59:31;;;;;;;11.50;1.67;;;6.40;99.90;;;;;;5092794;28;20135;-65
2023/03/27 10:02:00;;;;;;;9.07;1.40;;;6.70;99.90;;;;;;5092590;28;20060;-66
2023/03/27 10:04:28;;;;;;;5.88;1.30;;;6.60;99.90;;;;;;5091933;28;20091;-66
2023/03/27 10:07:04;;;;;;;4.05;1.10;;;6.30;99.90;;;;;;5092795;28;20047;-65
2023/03/27 10:09:33;;;;;;;7.93;1.40;;;6.90;99.90;;;;;;5092322;28;20050;-65
2023/03/27 10:12:06;;;;;;;5.35;1.60;;;6.90;99.90;;;;;;5092647;28;20478;-66
2023/03/27 10:14:34;;;;;;;5.18;1.20;;;5.60;99.90;;;;;;5090309;28;20488;-65
2023/03/27 10:17:04;;;;;;;4.70;1.02;;;6.90;99.90;;;;;;5089853;28;20369;-64
2023/03/27 10:19:38;;;;;;;6.32;1.40;;;6.90;99.90;;;;;;5092066;28;20040;-64
2023/03/27 10:22:30;;;;;;;6.53;1.63;;;7.00;99.90;;;;;;5091906;28;20063;-64
2023/03/27 10:25:04;;;;;;;10.70;1.45;;;;;;;;;;5092351;28;20048;-65
2023/03/27 10:27:33;;;;;;;10.60;1.48;;;6.70;99.90;;;;;;5092221;28;20083;-65
2023/03/27 10:29:59;;;;;;;5.70;1.60;;;6.90;99.90;;;;;;5092238;28;20415;-65
2023/03/27 10:32:45;;;;;;;5.63;1.42;;;7.10;99.90;;;;;;5074124;28;20044;-64
2023/03/27 10:35:29;;;;;;;9.32;1.35;;;7.50;99.90;;;;;;5092273;28;20044;-65
2023/03/27 10:37:56;;;;;;;5.75;1.33;;;7.40;99.90;;;;;;5091891;28;20044;-66
2023/03/27 10:40:30;;;;;;;9.00;1.60;;;5.60;99.90;;;;;;5092094;28;20044;-64
2023/03/27 10:43:03;;;;;;;6.93;1.73;;;7.50;99.90;;;;;;5092038;28;20044;-64
2023/03/27 10:45:31;;;;;;;7.60;1.38;;;7.60;99.90;;;;;;5092071;28;20040;-64
2023/03/27 10:47:59;;;;;;;12.50;2.10;;;5.80;99.90;;;;;;5092040;28;20400;-64
2023/03/27 10:50:40;;;;;;;7.32;1.33;;;7.60;99.90;;;;;;5091957;28;20117;-65
2023/03/27 10:53:16;;;;;;;10.55;1.80;;;7.90;99.90;;;;;;5091757;28;20122;-66
2023/03/27 10:56:03;;;;;;;11.13;2.20;;;7.60;99.90;;;;;;5092047;28;20048;-65
2023/03/27 10:58:43;;;;;;;7.97;1.70;;;6.00;99.90;;;;;;5092298;28;20059;-65
2023/03/27 11:01:16;;;;;;;11.45;1.83;;;5.60;99.90;;;;;;5091712;28;20048;-64
2023/03/27 11:04:17;;;;;;;6.05;1.20;;;5.20;99.90;;;;;;5091825;28;20123;-64
2023/03/27 11:06:45;;;;;;;11.57;1.30;;;5.60;99.90;;;;;;5065019;28;20064;-66
2023/03/27 11:09:16;;;;;;;5.68;1.20;;;5.50;99.90;;;;;;5090686;28;20084;-68
2023/03/27 11:11:57;;;;;;;6.80;1.52;;;5.90;99.90;;;;;;5091713;28;20051;-65
2023/03/27 11:14:30;;;;;;;8.68;1.88;;;6.10;99.90;;;;;;5090790;28;20101;-65
2023/03/27 11:16:59;;;;;;;6.30;1.80;;;6.80;99.90;;;;;;5092135;28;20426;-64
2023/03/27 11:19:34;;;;;;;12.02;1.90;;;6.50;99.90;;;;;;5091664;28;20119;-64
2023/03/27 11:22:10;;;;;;;6.15;1.70;;;6.60;99.90;;;;;;5091255;28;20427;-65
2023/03/27 11:24:46;;;;;;;5.70;1.38;;;6.70;99.90;;;;;;5091475;28;20048;-68
2023/03/27 11:27:11;;;;;;;4.70;1.60;;;6.80;99.90;;;;;;5090257;28;20070;-65
2023/03/27 11:29:52;;;;;;;4.72;1.73;;;7.10;99.90;;;;;;5091403;28;20498;-66
2023/03/27 11:32:44;;;;;;;5.68;1.67;;;6.80;99.90;;;;;;5091862;28;20072;-66
2023/03/27 11:35:20;;;;;;;7.10;1.48;;;6.70;99.90;;;;;;5081657;28;20043;-71
2023/03/27 11:38:00;;;;;;;9.38;1.85;;;6.90;99.90;;;;;;5071212;28;20044;-65
2023/03/27 11:40:40;;;;;;;6.97;1.52;;;7.30;99.90;;;;;;5086023;28;20050;-65
2023/03/27 11:43:10;;;;;;;7.22;1.60;;;7.10;99.90;;;;;;5070446;28;20036;-65
2023/03/27 11:46:02;;;;;;;11.13;1.92;;;7.20;99.90;;;;;;5083695;28;20040;-65
2023/03/27 11:48:55;;;;;;;5.90;1.30;;;6.90;99.90;;;;;;5092572;28;20062;-66
2023/03/27 11:51:42;;;;;;;5.53;1.83;;;7.40;99.90;;;;;;5112999;28;20040;-64
2023/03/27 11:54:33;;;;;;;9.43;2.00;;;7.00;99.90;;;;;;5115351;28;20047;-67
2023/03/27 11:57:02;;;;;;;11.80;2.25;;;7.10;99.90;;;;;;5074412;28;20059;-65
2023/03/27 11:59:45;;;;;;;17.38;2.63;;;7.20;99.90;;;;;;5077216;28;20481;-64
2023/03/27 12:02:34;;;;;;;13.38;2.22;;;6.90;99.90;;;;;;5094232;28;20401;-64
2023/03/27 12:05:21;;;;;;;6.78;1.20;;;5.50;99.90;;;;;;5105629;28;20052;-64
2023/03/27 12:07:50;;;;;;;;;;;7.30;99.90;;;;;;5094731;28;20452;-64
2023/03/27 12:10:31;;;;;;;10.82;2.45;;;7.40;99.90;;;;;;5094151;28;19923;-64
2023/03/27 12:13:09;;;;;;;10.25;2.33;;;7.40;99.90;;;;;;5094506;28;20090;-65
2023/03/27 12:16:01;;;;;;;8.85;1.73;;;7.40;99.90;;;;;;5094810;28;20051;-64
2023/03/27 12:18:46;;;;;;;7.07;1.27;;;7.30;99.90;;;;;;5093214;28;20048;-66
2023/03/27 12:21:46;;;;;;;2.72;0.90;;;7.30;99.90;;;;;;5094612;28;20097;-62
2023/03/27 12:24:31;;;;;;;4.72;0.90;;;7.20;99.90;;;;;;5094653;28;20131;-64
2023/03/27 12:27:43;;;;;;;8.13;1.52;;;7.00;99.90;;;;;;5094517;28;20437;-63
2023/03/27 12:30:36;;;;;;;4.18;1.10;;;6.70;99.90;;;;;;5031502;28;20053;-64
2023/03/27 12:33:40;;;;;;;8.88;1.65;;;5.10;99.90;;;;;;5031282;28;20441;-65
2023/03/27 12:36:11;;;;;;;10.10;1.83;;;6.60;99.90;;;;;;5059767;28;20059;-64
2023/03/27 12:38:42;;;;;;;10.70;2.35;;;6.80;99.90;;;;;;5093178;28;20048;-64
2023/03/27 12:41:09;;;;;;;10.00;1.77;;;7.20;99.90;;;;;;5092837;28;20067;-63
2023/03/27 12:43:40;;;;;;;7.32;1.48;;;7.60;99.90;;;;;;5094159;28;20055;-64
2023/03/27 12:46:23;;;;;;;8.35;1.90;;;7.80;99.90;;;;;;5094156;28;20051;-64
2023/03/27 12:49:09;;;;;;;18.85;1.95;;;7.60;99.90;;;;;;5093744;28;20051;-64
2023/03/27 12:51:49;;;;;;;8.15;1.77;;;7.80;99.90;;;;;;5094076;28;20048;-65
2023/03/27 12:54:18;;;;;;;9.23;1.75;;;8.00;99.90;;;;;;5094116;28;20441;-65
2023/03/27 12:57:11;;;;;;;14.95;2.30;;;8.40;99.90;;;;;;5094101;28;20102;-66
2023/03/27 13:00:08;;;;;;;11.50;1.95;;;8.20;99.90;;;;;;5091206;28;20074;-67
2023/03/27 13:02:46;;;;;;;8.52;1.98;;;7.60;99.90;;;;;;5093184;28;20101;-68
2023/03/27 13:05:30;;;;;;;13.18;1.83;;;6.40;99.90;;;;;;5093974;28;20519;-66
2023/03/27 13:08:26;;;;;;;6.50;1.55;;;5.70;99.90;;;;;;5092713;28;20369;-67
2023/03/27 13:11:01;;;;;;;9.10;1.60;;;5.20;99.90;;;;;;5093660;28;20051;-68
2023/03/27 13:13:35;;;;;;;4.68;1.02;;;5.00;99.90;;;;;;5093600;28;20044;-64
2023/03/27 13:16:04;;;;;;;4.22;1.13;;;4.80;99.90;;;;;;5093341;28;20047;-64
2023/03/27 13:18:47;;;;;;;5.10;1.20;;;5.20;99.90;;;;;;5093599;28;20062;-65
2023/03/27 13:21:15;;;;;;;6.40;1.33;;;5.30;99.90;;;;;;5093590;28;20045;-64
2023/03/27 13:23:55;;;;;;;7.65;1.90;;;5.50;99.90;;;;;;5093413;28;20059;-64
2023/03/27 13:26:39;;;;;;;11.75;1.77;;;5.90;99.90;;;;;;5093438;28;20075;-64
2023/03/27 13:29:29;;;;;;;13.63;2.53;;;6.70;99.90;;;;;;5093296;28;20055;-65
2023/03/27 13:32:01;;;;;;;14.00;2.05;;;6.90;99.90;;;;;;5091755;28;20055;-65
2023/03/27 13:34:33;;;;;;;8.07;1.45;;;7.60;99.90;;;;;;5093072;28;20052;-67
2023/03/27 13:37:12;;;;;;;12.32;1.70;;;7.80;99.90;;;;;;5093036;28;20044;-65
2023/03/27 13:40:15;;;;;;;12.05;1.90;;;7.70;99.90;;;;;;5083988;28;20507;-65
2023/03/27 13:42:44;;;;;;;10.65;2.08;;;8.30;99.90;;;;;;5091445;28;20097;-65
2023/03/27 13:45:28;;;;;;;10.32;2.10;;;8.10;99.90;;;;;;5092526;28;20044;-65
2023/03/27 13:48:32;;;;;;;8.52;1.60;;;7.90;99.90;;;;;;5105672;28;20399;-67
2023/03/27 13:51:16;;;;;;;8.15;1.42;;;8.00;99.90;;;;;;5112779;28;20047;-63
2023/03/27 13:54:00;;;;;;;10.30;1.67;;;8.10;99.90;;;;;;5112092;28;20040;-63
2023/03/27 13:56:46;;;;;;;13.70;2.40;;;7.80;99.90;;;;;;5112605;28;20047;-65
2023/03/27 13:59:30;;;;;;;14.40;2.38;;;8.10;99.90;;;;;;5112046;28;20058;-63
2023/03/27 14:02:24;;;;;;;9.73;1.40;;;8.30;99.90;;;;;;5107333;28;20064;-64
2023/03/27 14:05:27;;;;;;;5.18;1.50;;;8.50;99.90;;;;;;5092499;28;20143;-67
2023/03/27 14:07:59;;;;;;;9.52;1.60;;;8.70;99.90;;;;;;5103984;28;20050;-64